Time;durP1;ratioP1;P1;durP2;ratioP2;P2;SDS_P1;SDS_P2;PMS_P1;PMS_P2;Temp;Humidity;BMP_temperature;BMP_pressure;BME280_temperature;BME280_humidity;BME280_pressure;Samples;Min_cycle;Max_cycle;Signal;HPM_P1;HPM_P2
2023/08/03 00:01:06;;;;;;;2.93;1.20;;;;;;;;;;5088843;28;20224;-34
2023/08/03 00:03:35;;;;;;;2.53;1.23;;;;;;;;;;5089043;28;20204;-35
2023/08/03 00:06:02;;;;;;;2.53;1.10;;;;;;;;;;5061195;28;20205;-32
2023/08/03 00:08:29;;;;;;;5.90;1.20;;;;;;;;;;5083136;28;20205;-33
2023/08/03 00:10:56;;;;;;;2.47;1.13;;;;;;;;;;5073504;28;20268;-34
2023/08/03 00:13:23;;;;;;;3.90;1.33;;;;;;;;;;5078783;28;20202;-29
2023/08/03 00:15:50;;;;;;;3.03;1.50;;;;;;;;;;5085466;28;20201;-32
2023/08/03 00:21:24;;;;;;;2.70;1.23;;;;;;;;;;5290584;22;20300;-26
2023/08/03 00:27:32;;;;;;;3.17;1.50;;;;;;;;;;5099576;28;20184;-27
2023/08/03 00:33:44;;;;;;;5.13;1.47;;;;;;;;;;5069980;28;20219;-41
2023/08/03 00:45:56;;;;;;;5.37;1.47;;;;;;;;;;5097359;28;20191;-26
2023/08/03 00:51:55;;;;;;;4.53;1.30;;;;;;;;;;5086292;28;20216;-25
2023/08/03 00:55:09;;;;;;;3.90;1.40;;;;;;;;;;5096672;28;20205;-27
2023/08/03 00:57:42;;;;;;;6.90;1.30;;;;;;;;;;5094579;28;20260;-27
2023/08/03 01:00:27;;;;;;;3.57;1.27;;;;;;;;;;5087443;22;20240;-27
2023/08/03 01:15:45;;;;;;;6.30;1.30;;;;;;;;;;5127171;27;20264;-27
2023/08/03 01:21:36;;;;;;;4.97;1.37;;;;;;;;;;5110265;28;20235;-26
2023/08/03 01:30:25;;;;;;;5.73;1.63;;;;;;;;;;5114417;28;20206;-29
2023/08/03 01:36:13;;;;;;;4.10;1.30;;;;;;;;;;5094732;28;20211;-30
2023/08/03 01:41:32;;;;;;;5.73;1.60;;;;;;;;;;5081817;28;20248;-36
2023/08/03 01:44:28;;;;;;;4.00;1.23;;;;;;;;;;5094606;28;20204;-37
2023/08/03 01:46:59;;;;;;;4.47;1.50;;;;;;;;;;5061539;28;20259;-37
2023/08/03 01:49:36;;;;;;;5.13;1.20;;;;;;;;;;5076643;28;20230;-32
2023/08/03 01:52:36;;;;;;;4.53;1.20;;;;;;;;;;5071399;28;20228;-36
2023/08/03 01:55:26;;;;;;;4.93;1.37;;;;;;;;;;5094068;28;20236;-40
2023/08/03 02:00:44;;;;;;;7.13;1.50;;;;;;;;;;5134976;22;20230;-40
2023/08/03 02:03:32;;;;;;;5.47;1.47;;;;;;;;;;5129502;27;20232;-41
2023/08/03 02:06:08;;;;;;;4.00;1.20;;;;;;;;;;5116804;28;20625;-32
2023/08/03 02:08:45;;;;;;;6.37;1.00;;;;;;;;;;5123655;27;20287;-35
2023/08/03 02:11:23;;;;;;;5.57;1.17;;;;;;;;;;5137194;27;20219;-37
2023/08/03 02:13:55;;;;;;;4.03;1.33;;;;;;;;;;5122120;27;20203;-39
2023/08/03 02:16:30;;;;;;;4.37;1.00;;;;;;;;;;5132098;27;20196;-34
2023/08/03 02:19:11;;;;;;;7.30;1.43;;;;;;;;;;5133480;22;20287;-27
2023/08/03 02:21:52;;;;;;;5.13;1.27;;;;;;;;;;5111744;28;20232;-27
2023/08/03 02:24:36;;;;;;;4.43;1.60;;;;;;;;;;5367106;22;20206;-27
2023/08/03 02:27:44;;;;;;;3.03;1.20;;;;;;;;;;5166728;27;20213;-27
2023/08/03 02:30:31;;;;;;;4.07;1.37;;;;;;;;;;5158964;27;20217;-27
2023/08/03 02:33:12;;;;;;;3.80;1.00;;;;;;;;;;5176448;27;20190;-30
2023/08/03 02:35:55;;;;;;;5.20;1.33;;;;;;;;;;5172371;27;20208;-26
2023/08/03 02:38:36;;;;;;;4.83;1.03;;;;;;;;;;5157676;27;20202;-28
2023/08/03 02:41:17;;;;;;;6.27;1.67;;;;;;;;;;5166821;27;20224;-28
2023/08/03 02:44:01;;;;;;;10.23;1.13;;;;;;;;;;5156108;27;20210;-28
2023/08/03 02:46:54;;;;;;;3.60;0.77;;;;;;;;;;5156509;27;20198;-26
2023/08/03 02:50:00;;;;;;;6.47;1.13;;;;;;;;;;5156789;27;20307;-26
2023/08/03 02:52:40;;;;;;;2.60;0.90;;;;;;;;;;5162173;27;20200;-27
2023/08/03 02:55:41;;;;;;;4.23;1.13;;;;;;;;;;5174054;27;20218;-31
2023/08/03 02:58:25;;;;;;;;;;;;;;;;;;;;;
2023/08/03 03:04:22;;;;;;;2.67;1.13;;;;;;;;;;5156801;27;20235;-27
2023/08/03 03:10:00;;;;;;;4.13;1.63;;;;;;;;;;5163067;27;20237;-30
2023/08/03 03:12:33;;;;;;;4.27;1.37;;;;;;;;;;5163623;27;20224;-27
2023/08/03 03:15:15;;;;;;;2.70;1.20;;;;;;;;;;5167544;27;20270;-29
2023/08/03 03:20:48;;;;;;;3.43;1.37;;;;;;;;;;5172468;27;20220;-30
2023/08/03 03:23:39;;;;;;;4.47;0.83;;;;;;;;;;5156842;27;20289;-26
2023/08/03 03:26:35;;;;;;;3.80;1.10;;;;;;;;;;5155859;27;20299;-29
2023/08/03 03:29:15;;;;;;;5.00;1.27;;;;;;;;;;5168738;22;20376;-27
2023/08/03 03:31:48;;;;;;;3.80;1.20;;;;;;;;;;5086268;28;20189;-29
2023/08/03 03:34:19;;;;;;;5.10;1.80;;;;;;;;;;5094830;28;20292;-26
2023/08/03 03:36:50;;;;;;;5.67;1.30;;;;;;;;;;5102152;28;20219;-29
2023/08/03 03:42:07;;;;;;;4.10;1.17;;;;;;;;;;5069826;28;20231;-30
2023/08/03 03:44:38;;;;;;;3.50;1.40;;;;;;;;;;5085839;28;20215;-29
2023/08/03 03:47:15;;;;;;;3.63;1.13;;;;;;;;;;5093832;28;20232;-28
2023/08/03 03:49:44;;;;;;;3.33;1.00;;;;;;;;;;5094574;28;20216;-28
2023/08/03 03:52:16;;;;;;;3.73;0.90;;;;;;;;;;5080215;28;20201;-28
2023/08/03 03:55:08;;;;;;;2.17;1.23;;;;;;;;;;5097105;28;20200;-28
2023/08/03 03:57:59;;;;;;;;;;;;;;;;;;;;;
2023/08/03 04:00:53;;;;;;;4.40;1.13;;;;;;;;;;5150158;22;20255;-26
2023/08/03 04:03:26;;;;;;;5.93;1.27;;;;;;;;;;5102005;28;20204;-27
2023/08/03 04:05:56;;;;;;;3.93;1.17;;;;;;;;;;5105481;28;20204;-27
2023/08/03 04:08:33;;;;;;;5.57;1.40;;;;;;;;;;5111249;28;20200;-27
2023/08/03 04:11:07;;;;;;;4.03;1.10;;;;;;;;;;5105670;28;20250;-27
2023/08/03 04:13:48;;;;;;;5.03;0.83;;;;;;;;;;5105167;28;20291;-28
2023/08/03 04:16:20;;;;;;;3.33;1.10;;;;;;;;;;5114000;28;20287;-27
2023/08/03 04:18:59;;;;;;;2.87;1.03;;;;;;;;;;5113712;28;20299;-29
2023/08/03 04:21:36;;;;;;;8.47;1.53;;;;;;;;;;5110170;28;20235;-27
2023/08/03 04:24:11;;;;;;;2.70;1.00;;;;;;;;;;5116975;28;20242;-26
2023/08/03 04:26:50;;;;;;;3.30;0.93;;;;;;;;;;5114833;28;20478;-29
2023/08/03 04:29:31;;;;;;;1.83;0.77;;;;;;;;;;5100465;28;20219;-28
2023/08/03 04:32:17;;;;;;;;;;;;;;;;;;;;;
2023/08/03 04:35:03;;;;;;;1.03;0.50;;;;;;;;;;5116538;28;20211;-30
2023/08/03 04:37:41;;;;;;;0.67;0.50;;;;;;;;;;5111606;28;20210;-28
2023/08/03 04:40:20;;;;;;;3.10;0.90;;;;;;;;;;5117220;28;20253;-28
2023/08/03 04:42:57;;;;;;;2.40;0.50;;;;;;;;;;5110644;28;20211;-30
2023/08/03 04:45:36;;;;;;;1.37;0.50;;;;;;;;;;5117296;28;20211;-27
2023/08/03 04:53:34;;;;;;;1.73;0.97;;;;;;;;;;5363103;22;20238;-27
2023/08/03 04:56:13;;;;;;;4.37;0.83;;;;;;;;;;5104862;28;20563;-26
2023/08/03 04:58:51;;;;;;;2.27;0.60;;;;;;;;;;5098105;28;20228;-27
2023/08/03 05:01:26;;;;;;;1.43;0.67;;;;;;;;;;5106182;28;20216;-29
2023/08/03 05:03:59;;;;;;;2.10;1.07;;;;;;;;;;5117387;28;20199;-28
2023/08/03 05:06:47;;;;;;;0.90;0.50;;;;;;;;;;5116445;28;20249;-27
2023/08/03 05:09:24;;;;;;;0.50;0.50;;;;;;;;;;5101223;28;20254;-26
2023/08/03 05:12:04;;;;;;;2.20;0.60;;;;;;;;;;5098706;28;20329;-28
2023/08/03 05:14:42;;;;;;;1.77;0.70;;;;;;;;;;5111520;28;20656;-28
2023/08/03 05:17:16;;;;;;;1.57;0.60;;;;;;;;;;5104517;28;20220;-27
2023/08/03 05:20:02;;;;;;;1.27;0.57;;;;;;;;;;5105786;28;20216;-26
2023/08/03 05:22:37;;;;;;;1.40;0.53;;;;;;;;;;5110739;28;20227;-28
2023/08/03 05:28:00;;;;;;;1.67;0.60;;;;;;;;;;5113172;28;20204;-27
2023/08/03 05:30:33;;;;;;;1.00;0.40;;;;;;;;;;5101982;28;20216;-26
2023/08/03 05:33:09;;;;;;;1.00;0.77;;;;;;;;;;5096007;28;20205;-28
2023/08/03 05:35:47;;;;;;;2.77;0.60;;;;;;;;;;5095746;28;20261;-24
2023/08/03 05:38:20;;;;;;;4.27;0.83;;;;;;;;;;5103184;28;20211;-26
2023/08/03 05:40:50;;;;;;;3.33;0.60;;;;;;;;;;5103425;28;20215;-27
2023/08/03 05:43:23;;;;;;;3.40;0.93;;;;;;;;;;5107043;28;20208;-26
2023/08/03 05:45:59;;;;;;;2.37;0.60;;;;;;;;;;5113228;28;20238;-28
2023/08/03 05:48:36;;;;;;;3.03;0.60;;;;;;;;;;5114810;28;20219;-27
2023/08/03 05:51:10;;;;;;;2.30;0.77;;;;;;;;;;5115324;28;20215;-28
2023/08/03 05:53:47;;;;;;;2.70;0.70;;;;;;;;;;5110601;28;20216;-26
2023/08/03 05:56:23;;;;;;;2.03;0.80;;;;;;;;;;5094623;28;20340;-28
2023/08/03 05:58:59;;;;;;;3.33;0.90;;;;;;;;;;5104694;28;20229;-29
2023/08/03 06:01:52;;;;;;;1.43;0.60;;;;;;;;;;5101330;28;20219;-27
2023/08/03 06:04:34;;;;;;;1.77;0.60;;;;;;;;;;5108171;28;20213;-27
2023/08/03 06:07:14;;;;;;;0.97;0.50;;;;;;;;;;5102995;28;20212;-29
2023/08/03 06:09:48;;;;;;;3.50;0.60;;;;;;;;;;5099385;28;20278;-27
2023/08/03 06:12:18;;;;;;;1.83;0.60;;;;;;;;;;5102027;28;20607;-26
2023/08/03 06:14:58;;;;;;;1.17;0.60;;;;;;;;;;5094991;28;20216;-27
2023/08/03 06:17:39;;;;;;;2.80;0.97;;;;;;;;;;5094361;28;20228;-27
2023/08/03 06:20:22;;;;;;;1.43;1.00;;;;;;;;;;5093878;28;20225;-27
2023/08/03 06:23:09;;;;;;;2.80;0.70;;;;;;;;;;5492040;22;20227;-28
2023/08/03 06:25:39;;;;;;;1.20;0.60;;;;;;;;;;5127689;27;20223;-26
2023/08/03 06:28:12;;;;;;;1.23;0.60;;;;;;;;;;5112304;27;20198;-27
2023/08/03 06:30:40;;;;;;;1.03;0.50;;;;;;;;;;5108473;28;20243;-26
2023/08/03 06:33:14;;;;;;;1.17;0.60;;;;;;;;;;5095157;28;20197;-28
2023/08/03 06:35:46;;;;;;;1.37;0.70;;;;;;;;;;5104414;28;20201;-27
2023/08/03 06:38:18;;;;;;;2.07;0.70;;;;;;;;;;5100271;28;20229;-26
2023/08/03 06:40:54;;;;;;;2.80;0.60;;;;;;;;;;5112163;28;20201;-26
2023/08/03 06:43:26;;;;;;;0.70;0.53;;;;;;;;;;5101156;28;20206;-28
2023/08/03 06:46:02;;;;;;;1.53;0.87;;;;;;;;;;5096644;28;20254;-29
2023/08/03 06:48:45;;;;;;;2.27;0.80;;;;;;;;;;5094693;28;20224;-26
2023/08/03 06:51:23;;;;;;;1.97;0.50;;;;;;;;;;5099030;28;20219;-26
2023/08/03 06:53:59;;;;;;;3.33;0.70;;;;;;;;;;5101736;28;20202;-27
2023/08/03 06:56:36;;;;;;;2.83;0.83;;;;;;;;;;5101073;28;20212;-29
2023/08/03 07:04:12;;;;;;;1.33;0.53;;;;;;;;;;5155159;27;20221;-31
2023/08/03 07:06:42;;;;;;;1.60;0.87;;;;;;;;;;5148257;27;20263;-28
2023/08/03 07:09:25;;;;;;;3.57;0.70;;;;;;;;;;5155727;27;20279;-31
2023/08/03 07:11:54;;;;;;;1.53;0.70;;;;;;;;;;5131509;27;20254;-28
2023/08/03 07:14:22;;;;;;;5.00;0.67;;;;;;;;;;5134758;27;20199;-31
2023/08/03 07:16:55;;;;;;;0.82;0.70;;;;;;;;;;5134014;27;20324;-29
2023/08/03 07:19:26;;;;;;;3.10;1.05;;;;;;;;;;5134297;27;20295;-28
2023/08/03 07:21:55;;;;;;;1.03;0.60;;;;;;;;;;5137505;27;20214;-28
2023/08/03 07:24:30;;;;;;;1.63;0.77;;;;;;;;;;5136749;27;20202;-31
2023/08/03 07:27:15;;;;;;;2.78;1.00;;;;;;;;;;5131568;27;20221;-30
2023/08/03 07:29:43;;;;;;;3.23;0.93;;;;;;;;;;5132902;27;20235;-30
2023/08/03 07:32:17;;;;;;;1.43;0.80;;;;;;;;;;5147545;27;20281;-28
2023/08/03 07:35:04;;;;;;;3.03;0.70;;;;;;;;;;5155862;27;20203;-30
2023/08/03 07:38:06;;;;;;;0.60;0.60;;;;;;;;;;5123677;27;20213;-30
2023/08/03 07:40:40;;;;;;;1.77;0.73;;;;;;;;;;5114889;28;20235;-29
2023/08/03 07:43:09;;;;;;;3.90;1.20;;;;;;;;;;5128145;27;20294;-29
2023/08/03 07:45:40;;;;;;;1.17;0.70;;;;;;;;;;5135778;27;20203;-28
2023/08/03 07:48:16;;;;;;;1.67;0.70;;;;;;;;;;5134182;27;20233;-31
2023/08/03 07:50:52;;;;;;;1.30;0.80;;;;;;;;;;5132326;28;20213;-31
2023/08/03 07:53:28;;;;;;;1.43;0.77;;;;;;;;;;5135376;27;20201;-29
2023/08/03 08:01:06;;;;;;;2.40;0.80;;;;;;;;;;5152156;27;20216;-30
2023/08/03 08:03:48;;;;;;;1.67;0.70;;;;;;;;;;5159939;27;20674;-32
2023/08/03 08:06:19;;;;;;;1.17;0.53;;;;;;;;;;5159168;27;20216;-28
2023/08/03 09:31:36;;;;;;;0.70;0.40;;;;;;;;;;5122175;27;20244;-31
2023/08/03 09:40:24;;;;;;;1.87;0.47;;;;;;;;;;5049250;28;20310;-31
2023/08/03 16:54:01;;;;;;;0.80;0.30;;;;;;;;;;5024171;28;20226;-42
2023/08/03 16:57:00;;;;;;;1.03;0.30;;;;;;;;;;5026697;28;20362;-35
2023/08/03 16:59:58;;;;;;;0.53;0.30;;;;;;;;;;5023167;28;20233;-39
2023/08/03 17:02:51;;;;;;;1.93;0.40;;;;;;;;;;5015591;28;20211;-38
2023/08/03 17:05:33;;;;;;;0.93;0.30;;;;;;;;;;5016618;28;20203;-38
2023/08/03 17:08:13;;;;;;;0.97;0.50;;;;;;;;;;5041336;28;20639;-41
2023/08/03 17:10:57;;;;;;;2.90;0.37;;;;;;;;;;5020774;28;20215;-38
2023/08/03 17:17:07;;;;;;;1.00;0.30;;;;;;;;;;5024675;28;20234;-28
2023/08/03 17:22:50;;;;;;;0.73;0.30;;;;;;;;;;5000406;28;20231;-28
2023/08/03 17:28:44;;;;;;;0.33;0.30;;;;;;;;;;5035382;28;20189;-33
2023/08/03 18:13:38;;;;;;;1.03;0.20;;;;;;;;;;5033321;28;20278;-39
2023/08/03 18:16:23;;;;;;;2.67;0.30;;;;;;;;;;5062617;28;20310;-41
2023/08/03 18:19:24;;;;;;;0.67;0.63;;;;;;;;;;5075930;28;20226;-35
2023/08/03 19:08:27;;;;;;;0.60;0.60;;;;;;;;;;5004546;22;20260;-27
2023/08/03 19:10:54;;;;;;;0.50;0.50;;;;;;;;;;5035577;28;20208;-23
2023/08/03 19:13:22;;;;;;;0.43;0.43;;;;;;;;;;5040108;28;20200;-29
2023/08/03 19:15:49;;;;;;;0.30;0.30;;;;;;;;;;5042640;28;20215;-28
2023/08/03 19:18:16;;;;;;;1.40;0.20;;;;;;;;;;5053170;28;20217;-26
2023/08/03 19:20:44;;;;;;;0.93;0.60;;;;;;;;;;5044344;28;20700;-25
2023/08/03 19:23:11;;;;;;;0.43;0.40;;;;;;;;;;5037031;28;20225;-25
2023/08/03 19:25:41;;;;;;;0.30;0.30;;;;;;;;;;5043133;28;20206;-28
2023/08/03 19:28:08;;;;;;;1.77;0.33;;;;;;;;;;5036415;28;20209;-26
2023/08/03 19:30:35;;;;;;;3.03;0.43;;;;;;;;;;5039876;28;20622;-28
2023/08/03 19:33:03;;;;;;;0.97;0.43;;;;;;;;;;5045714;28;20199;-29
2023/08/03 19:35:37;;;;;;;1.00;0.50;;;;;;;;;;5049639;28;20719;-28
2023/08/03 19:38:05;;;;;;;0.60;0.30;;;;;;;;;;5048379;28;20292;-28
2023/08/03 19:40:32;;;;;;;0.57;0.57;;;;;;;;;;5041493;28;20710;-28
2023/08/03 19:43:01;;;;;;;0.40;0.40;;;;;;;;;;5038862;28;20231;-26
2023/08/03 19:45:28;;;;;;;1.50;0.40;;;;;;;;;;5047692;28;20212;-29
2023/08/03 19:47:57;;;;;;;2.17;0.70;;;;;;;;;;5051894;28;20214;-25
2023/08/03 19:50:25;;;;;;;0.53;0.43;;;;;;;;;;5049089;28;20232;-29
2023/08/03 19:52:52;;;;;;;0.60;0.50;;;;;;;;;;5045419;28;20211;-25
2023/08/03 19:55:19;;;;;;;0.87;0.60;;;;;;;;;;5038453;28;20216;-29
2023/08/03 19:57:48;;;;;;;0.50;0.50;;;;;;;;;;5032469;28;20210;-27
2023/08/03 20:00:17;;;;;;;0.50;0.50;;;;;;;;;;5039770;28;20237;-26
2023/08/03 20:02:47;;;;;;;1.27;0.40;;;;;;;;;;5049180;28;20240;-27
2023/08/03 20:05:15;;;;;;;1.50;0.67;;;;;;;;;;5045948;28;20212;-29
2023/08/03 20:07:42;;;;;;;0.80;0.60;;;;;;;;;;5039048;28;20208;-29
2023/08/03 20:10:12;;;;;;;1.33;0.60;;;;;;;;;;5059784;28;20256;-27
2023/08/03 20:12:46;;;;;;;0.60;0.60;;;;;;;;;;5059716;28;20207;-29
2023/08/03 20:15:15;;;;;;;1.10;0.40;;;;;;;;;;5055276;28;20202;-28
2023/08/03 20:17:50;;;;;;;1.63;0.53;;;;;;;;;;5057924;28;20256;-30
2023/08/03 20:20:18;;;;;;;0.90;0.70;;;;;;;;;;5062425;28;20235;-26
2023/08/03 20:22:52;;;;;;;5.10;0.70;;;;;;;;;;5056965;28;20214;-30
2023/08/03 20:25:19;;;;;;;0.50;0.37;;;;;;;;;;5064095;28;20207;-28
2023/08/03 20:27:46;;;;;;;1.77;0.37;;;;;;;;;;5051393;28;20212;-29
2023/08/03 20:30:13;;;;;;;0.40;0.40;;;;;;;;;;5057352;28;20238;-26
2023/08/03 20:32:40;;;;;;;0.50;0.40;;;;;;;;;;5058677;28;20235;-24
2023/08/03 20:35:09;;;;;;;1.37;0.50;;;;;;;;;;5064948;28;20203;-28
2023/08/03 20:37:36;;;;;;;0.63;0.50;;;;;;;;;;5050947;28;20281;-26
2023/08/03 20:40:04;;;;;;;2.43;0.47;;;;;;;;;;5059974;28;20306;-26
2023/08/03 20:42:32;;;;;;;1.90;0.50;;;;;;;;;;5058812;28;20210;-26
2023/08/03 20:44:59;;;;;;;0.87;0.40;;;;;;;;;;5059659;28;20233;-28
2023/08/03 20:47:26;;;;;;;1.87;0.63;;;;;;;;;;5060137;28;20203;-28
2023/08/03 20:49:54;;;;;;;7.67;0.80;;;;;;;;;;5062401;28;20229;-27
2023/08/03 20:52:23;;;;;;;3.07;0.70;;;;;;;;;;5057765;28;20210;-25
2023/08/03 20:54:50;;;;;;;0.77;0.60;;;;;;;;;;5061476;28;20198;-28
2023/08/03 20:57:18;;;;;;;0.90;0.53;;;;;;;;;;5056158;28;20287;-28
2023/08/03 20:59:45;;;;;;;0.77;0.50;;;;;;;;;;5064418;28;20241;-29
2023/08/03 21:02:13;;;;;;;1.90;0.40;;;;;;;;;;5060766;28;20209;-25
2023/08/03 21:04:48;;;;;;;2.60;0.70;;;;;;;;;;5063314;28;20233;-26
2023/08/03 21:07:16;;;;;;;0.47;0.47;;;;;;;;;;5054571;28;20202;-28
2023/08/03 21:09:45;;;;;;;1.60;0.57;;;;;;;;;;5060215;28;20255;-26
2023/08/03 21:12:12;;;;;;;0.63;0.50;;;;;;;;;;5056492;28;20218;-28
2023/08/03 21:14:39;;;;;;;0.70;0.70;;;;;;;;;;5066161;28;20293;-26
2023/08/03 21:17:08;;;;;;;1.53;0.43;;;;;;;;;;5063085;28;20206;-24
2023/08/03 21:19:35;;;;;;;0.50;0.50;;;;;;;;;;5054459;28;20646;-26
2023/08/03 21:22:05;;;;;;;1.30;0.47;;;;;;;;;;5061838;28;20742;-26
2023/08/03 21:24:32;;;;;;;1.60;0.60;;;;;;;;;;5066607;28;20300;-25
2023/08/03 21:27:02;;;;;;;0.73;0.63;;;;;;;;;;5055465;28;20684;-29
2023/08/03 21:29:29;;;;;;;0.50;0.50;;;;;;;;;;5065372;28;20316;-29
2023/08/03 21:32:00;;;;;;;1.87;0.70;;;;;;;;;;5063549;28;20212;-27
2023/08/03 21:34:27;;;;;;;0.43;0.40;;;;;;;;;;5060034;28;20345;-28
2023/08/03 21:36:54;;;;;;;1.17;0.67;;;;;;;;;;5053402;28;20293;-29
2023/08/03 21:39:22;;;;;;;0.83;0.57;;;;;;;;;;5072197;28;20312;-26
2023/08/03 21:41:49;;;;;;;1.20;0.50;;;;;;;;;;5064386;28;20297;-27
2023/08/03 21:44:17;;;;;;;0.93;0.60;;;;;;;;;;5063692;28;20313;-28
2023/08/03 21:46:44;;;;;;;0.70;0.70;;;;;;;;;;5055857;28;20207;-27
2023/08/03 21:49:12;;;;;;;1.97;0.70;;;;;;;;;;5072532;28;20310;-27
2023/08/03 21:51:39;;;;;;;2.77;0.83;;;;;;;;;;5059684;28;20301;-27
2023/08/03 21:54:06;;;;;;;2.93;0.40;;;;;;;;;;5071122;28;20205;-28
2023/08/03 21:56:33;;;;;;;1.50;0.57;;;;;;;;;;5065753;28;20277;-28
2023/08/03 21:59:00;;;;;;;0.70;0.60;;;;;;;;;;5061339;28;20233;-28
2023/08/03 22:01:29;;;;;;;2.83;0.60;;;;;;;;;;5063006;28;20202;-28
2023/08/03 22:03:56;;;;;;;2.20;0.43;;;;;;;;;;5057716;28;20283;-30
2023/08/03 22:06:23;;;;;;;0.57;0.57;;;;;;;;;;5060084;28;20240;-26
2023/08/03 22:08:50;;;;;;;0.33;0.33;;;;;;;;;;5058485;28;20237;-27
2023/08/03 22:11:18;;;;;;;4.23;0.50;;;;;;;;;;5059087;28;20597;-28
2023/08/03 22:13:45;;;;;;;5.70;0.60;;;;;;;;;;5055579;28;20286;-28
2023/08/03 22:16:12;;;;;;;0.57;0.50;;;;;;;;;;5063763;28;21014;-27
2023/08/03 22:18:41;;;;;;;0.53;0.53;;;;;;;;;;5073822;28;20778;-26
2023/08/03 22:21:08;;;;;;;0.53;0.50;;;;;;;;;;5062774;28;20292;-27
2023/08/03 22:23:35;;;;;;;2.10;0.77;;;;;;;;;;5073726;28;20588;-26
2023/08/03 22:26:02;;;;;;;0.73;0.60;;;;;;;;;;5074320;28;20201;-29
2023/08/03 22:28:29;;;;;;;1.03;0.40;;;;;;;;;;5060495;28;20292;-26
2023/08/03 22:30:57;;;;;;;0.83;0.50;;;;;;;;;;5073676;28;20211;-27
2023/08/03 22:33:24;;;;;;;0.80;0.50;;;;;;;;;;5072396;28;20300;-29
2023/08/03 22:35:52;;;;;;;0.40;0.40;;;;;;;;;;5054567;28;20297;-25
2023/08/03 22:38:19;;;;;;;0.43;0.43;;;;;;;;;;5068326;28;20245;-25
2023/08/03 22:40:47;;;;;;;1.67;0.60;;;;;;;;;;5053676;28;20289;-25
2023/08/03 22:43:14;;;;;;;0.87;0.57;;;;;;;;;;5059897;28;20209;-27
2023/08/03 22:45:41;;;;;;;0.50;0.50;;;;;;;;;;5065509;28;20682;-25
2023/08/03 22:48:08;;;;;;;1.17;0.50;;;;;;;;;;5053723;28;20293;-30
2023/08/03 22:50:38;;;;;;;3.53;0.60;;;;;;;;;;5053199;28;20240;-30
2023/08/03 22:53:06;;;;;;;0.50;0.50;;;;;;;;;;5070050;28;20205;-27
2023/08/03 22:55:34;;;;;;;0.40;0.40;;;;;;;;;;5053770;28;20233;-28
2023/08/03 22:58:01;;;;;;;2.03;1.10;;;;;;;;;;5052415;28;20727;-28
2023/08/03 23:00:28;;;;;;;0.73;0.50;;;;;;;;;;5065244;28;20283;-27
2023/08/03 23:02:55;;;;;;;2.50;0.60;;;;;;;;;;5071991;28;20274;-29
2023/08/03 23:05:22;;;;;;;1.13;0.60;;;;;;;;;;5065035;28;20222;-27
2023/08/03 23:07:49;;;;;;;2.47;0.50;;;;;;;;;;5052676;28;20214;-24
2023/08/03 23:10:18;;;;;;;1.83;0.47;;;;;;;;;;5062362;28;20304;-27
2023/08/03 23:12:45;;;;;;;0.70;0.60;;;;;;;;;;5059103;28;20205;-26
2023/08/03 23:15:12;;;;;;;1.77;0.60;;;;;;;;;;5066767;28;20280;-29
2023/08/03 23:17:40;;;;;;;2.43;0.53;;;;;;;;;;5072249;28;20292;-25
2023/08/03 23:20:07;;;;;;;0.60;0.60;;;;;;;;;;5072848;28;20221;-27
2023/08/03 23:22:40;;;;;;;2.47;0.57;;;;;;;;;;5062873;28;20623;-28
2023/08/03 23:25:07;;;;;;;0.70;0.40;;;;;;;;;;5071767;28;20206;-24
2023/08/03 23:27:35;;;;;;;0.43;0.40;;;;;;;;;;5065817;28;20201;-25
2023/08/03 23:30:03;;;;;;;0.97;0.50;;;;;;;;;;5062876;28;20229;-26
2023/08/03 23:32:30;;;;;;;0.57;0.57;;;;;;;;;;5067600;28;20201;-26
2023/08/03 23:34:57;;;;;;;0.63;0.47;;;;;;;;;;5067560;28;20297;-31
2023/08/03 23:37:24;;;;;;;0.70;0.63;;;;;;;;;;5054669;28;20300;-23
2023/08/03 23:39:51;;;;;;;1.57;0.63;;;;;;;;;;5061442;28;20658;-27
2023/08/03 23:42:18;;;;;;;1.50;0.70;;;;;;;;;;5064486;28;20212;-26
2023/08/03 23:44:47;;;;;;;0.50;0.50;;;;;;;;;;5060562;28;20233;-27
2023/08/03 23:47:14;;;;;;;1.57;0.47;;;;;;;;;;5072316;28;20296;-29
2023/08/03 23:49:41;;;;;;;0.67;0.50;;;;;;;;;;5072702;28;20225;-27
2023/08/03 23:52:08;;;;;;;0.70;0.70;;;;;;;;;;5065964;28;20212;-27
2023/08/03 23:54:35;;;;;;;2.17;0.57;;;;;;;;;;5049860;28;20292;-26
2023/08/03 23:57:03;;;;;;;1.33;1.23;;;;;;;;;;5062390;28;20201;-28
2023/08/03 23:59:30;;;;;;;1.33;0.53;;;;;;;;;;5061932;28;20244;-28
